sensor_id;sensor_type;location;lat;lon;timestamp;temperature;humidity
23267;DHT22;11802;53.160;8.214;2022-08-07T00:01:10;11.90;99.90
23267;DHT22;11802;53.160;8.214;2022-08-07T00:03:36;11.80;99.90
23267;DHT22;11802;53.160;8.214;2022-08-07T00:06:02;11.80;99.90
23267;DHT22;11802;53.160;8.214;2022-08-07T00:08:28;11.80;99.90
23267;DHT22;11802;53.160;8.214;2022-08-07T00:10:54;11.70;99.90
23267;DHT22;11802;53.160;8.214;2022-08-07T00:13:21;11.70;99.90
23267;DHT22;11802;53.160;8.214;2022-08-07T00:15:47;11.70;99.90
23267;DHT22;11802;53.160;8.214;2022-08-07T00:18:19;11.60;99.90
23267;DHT22;11802;53.160;8.214;2022-08-07T00:20:45;11.60;99.90
23267;DHT22;11802;53.160;8.214;2022-08-07T00:23:11;11.50;99.90
23267;DHT22;11802;53.160;8.214;2022-08-07T00:25:36;11.50;99.90
23267;DHT22;11802;53.160;8.214;2022-08-07T00:28:02;11.50;99.90
23267;DHT22;11802;53.160;8.214;2022-08-07T00:30:28;11.50;99.90
23267;DHT22;11802;53.160;8.214;2022-08-07T00:32:58;11.50;99.90
23267;DHT22;11802;53.160;8.214;2022-08-07T00:35:25;11.40;99.90
23267;DHT22;11802;53.160;8.214;2022-08-07T00:37:51;11.40;99.90
23267;DHT22;11802;53.160;8.214;2022-08-07T00:40:17;11.50;99.90
23267;DHT22;11802;53.160;8.214;2022-08-07T00:42:42;11.40;99.90
23267;DHT22;11802;53.160;8.214;2022-08-07T00:45:10;11.40;99.90
23267;DHT22;11802;53.160;8.214;2022-08-07T00:47:35;11.30;99.90
23267;DHT22;11802;53.160;8.214;2022-08-07T00:50:01;11.30;99.90
23267;DHT22;11802;53.160;8.214;2022-08-07T00:52:27;11.30;99.90
23267;DHT22;11802;53.160;8.214;2022-08-07T00:54:53;11.20;99.90
23267;DHT22;11802;53.160;8.214;2022-08-07T00:57:19;11.20;99.90
23267;DHT22;11802;53.160;8.214;2022-08-07T00:59:46;11.20;99.90
23267;DHT22;11802;53.160;8.214;2022-08-07T01:02:12;11.20;99.90
23267;DHT22;11802;53.160;8.214;2022-08-07T01:04:38;11.20;99.90
23267;DHT22;11802;53.160;8.214;2022-08-07T01:07:06;11.10;99.90
23267;DHT22;11802;53.160;8.214;2022-08-07T01:09:32;11.10;99.90
23267;DHT22;11802;53.160;8.214;2022-08-07T01:11:59;11.00;99.90
23267;DHT22;11802;53.160;8.214;2022-08-07T01:14:25;11.00;99.90
23267;DHT22;11802;53.160;8.214;2022-08-07T01:16:52;11.00;99.90
23267;DHT22;11802;53.160;8.214;2022-08-07T01:19:19;11.00;99.90
23267;DHT22;11802;53.160;8.214;2022-08-07T01:21:48;11.00;99.90
23267;DHT22;11802;53.160;8.214;2022-08-07T01:24:15;11.00;99.90
23267;DHT22;11802;53.160;8.214;2022-08-07T01:26:41;11.00;99.90
23267;DHT22;11802;53.160;8.214;2022-08-07T01:29:07;11.00;99.90
23267;DHT22;11802;53.160;8.214;2022-08-07T01:31:33;10.90;99.90
23267;DHT22;11802;53.160;8.214;2022-08-07T01:34:00;10.80;99.90
23267;DHT22;11802;53.160;8.214;2022-08-07T01:36:27;10.80;99.90
23267;DHT22;11802;53.160;8.214;2022-08-07T01:38:54;10.90;99.90
23267;DHT22;11802;53.160;8.214;2022-08-07T01:41:20;10.90;99.90
23267;DHT22;11802;53.160;8.214;2022-08-07T01:43:47;10.90;99.90
23267;DHT22;11802;53.160;8.214;2022-08-07T01:46:14;10.80;99.90
23267;DHT22;11802;53.160;8.214;2022-08-07T01:48:41;10.80;99.90
23267;DHT22;11802;53.160;8.214;2022-08-07T01:51:08;10.70;99.90
23267;DHT22;11802;53.160;8.214;2022-08-07T01:53:36;10.70;99.90
23267;DHT22;11802;53.160;8.214;2022-08-07T01:56:14;10.70;99.90
23267;DHT22;11802;53.160;8.214;2022-08-07T01:58:43;10.60;99.90
23267;DHT22;11802;53.160;8.214;2022-08-07T02:01:16;10.70;99.90
23267;DHT22;11802;53.160;8.214;2022-08-07T02:03:48;10.70;99.90
23267;DHT22;11802;53.160;8.214;2022-08-07T02:06:16;10.70;99.90
23267;DHT22;11802;53.160;8.214;2022-08-07T02:08:43;10.70;99.90
23267;DHT22;11802;53.160;8.214;2022-08-07T02:11:10;10.60;99.90
23267;DHT22;11802;53.160;8.214;2022-08-07T02:13:37;10.60;99.90
23267;DHT22;11802;53.160;8.214;2022-08-07T02:16:04;10.60;99.90
23267;DHT22;11802;53.160;8.214;2022-08-07T02:18:32;10.60;99.90
23267;DHT22;11802;53.160;8.214;2022-08-07T02:21:00;10.60;99.90
23267;DHT22;11802;53.160;8.214;2022-08-07T02:23:27;10.60;99.90
23267;DHT22;11802;53.160;8.214;2022-08-07T02:25:56;10.60;99.90
23267;DHT22;11802;53.160;8.214;2022-08-07T02:28:25;10.50;99.90
23267;DHT22;11802;53.160;8.214;2022-08-07T02:30:51;10.50;99.90
23267;DHT22;11802;53.160;8.214;2022-08-07T02:33:18;10.40;99.90
23267;DHT22;11802;53.160;8.214;2022-08-07T02:35:45;10.40;99.90
23267;DHT22;11802;53.160;8.214;2022-08-07T02:38:13;10.40;99.90
23267;DHT22;11802;53.160;8.214;2022-08-07T02:40:40;10.40;99.90
23267;DHT22;11802;53.160;8.214;2022-08-07T02:43:06;10.30;99.90
23267;DHT22;11802;53.160;8.214;2022-08-07T02:45:32;10.30;99.90
23267;DHT22;11802;53.160;8.214;2022-08-07T02:47:58;10.30;99.90
23267;DHT22;11802;53.160;8.214;2022-08-07T02:50:25;10.20;99.90
23267;DHT22;11802;53.160;8.214;2022-08-07T02:52:58;10.20;99.90
23267;DHT22;11802;53.160;8.214;2022-08-07T02:55:29;10.20;99.90
23267;DHT22;11802;53.160;8.214;2022-08-07T02:58:02;10.20;99.90
23267;DHT22;11802;53.160;8.214;2022-08-07T03:00:29;10.20;99.90
23267;DHT22;11802;53.160;8.214;2022-08-07T03:02:56;10.20;99.90
23267;DHT22;11802;53.160;8.214;2022-08-07T03:05:23;10.10;99.90
23267;DHT22;11802;53.160;8.214;2022-08-07T03:07:49;10.10;99.90
23267;DHT22;11802;53.160;8.214;2022-08-07T03:10:16;10.10;99.90
23267;DHT22;11802;53.160;8.214;2022-08-07T03:12:44;10.10;99.90
23267;DHT22;11802;53.160;8.214;2022-08-07T03:15:11;10.00;99.90
23267;DHT22;11802;53.160;8.214;2022-08-07T03:17:36;10.00;99.90
23267;DHT22;11802;53.160;8.214;2022-08-07T03:20:04;10.00;99.90
23267;DHT22;11802;53.160;8.214;2022-08-07T03:22:30;9.90;99.90
23267;DHT22;11802;53.160;8.214;2022-08-07T03:24:57;9.90;99.90
23267;DHT22;11802;53.160;8.214;2022-08-07T03:27:24;9.90;99.90
23267;DHT22;11802;53.160;8.214;2022-08-07T03:29:51;9.90;99.90
23267;DHT22;11802;53.160;8.214;2022-08-07T03:32:21;9.80;99.90
23267;DHT22;11802;53.160;8.214;2022-08-07T03:34:49;9.80;99.90
23267;DHT22;11802;53.160;8.214;2022-08-07T03:37:17;9.80;99.90
23267;DHT22;11802;53.160;8.214;2022-08-07T03:39:44;9.80;99.90
23267;DHT22;11802;53.160;8.214;2022-08-07T03:42:14;9.90;99.90
23267;DHT22;11802;53.160;8.214;2022-08-07T03:44:42;9.80;99.90
23267;DHT22;11802;53.160;8.214;2022-08-07T03:47:07;9.90;99.90
23267;DHT22;11802;53.160;8.214;2022-08-07T03:49:34;9.90;99.90
23267;DHT22;11802;53.160;8.214;2022-08-07T03:52:00;9.90;99.90
23267;DHT22;11802;53.160;8.214;2022-08-07T03:54:26;9.90;99.90
23267;DHT22;11802;53.160;8.214;2022-08-07T03:56:54;9.90;99.90
23267;DHT22;11802;53.160;8.214;2022-08-07T03:59:20;9.90;99.90
23267;DHT22;11802;53.160;8.214;2022-08-07T04:01:46;9.90;99.90
23267;DHT22;11802;53.160;8.214;2022-08-07T04:04:15;9.90;99.90
23267;DHT22;11802;53.160;8.214;2022-08-07T04:06:41;10.00;99.90
23267;DHT22;11802;53.160;8.214;2022-08-07T04:09:08;10.00;99.90
23267;DHT22;11802;53.160;8.214;2022-08-07T04:11:35;10.00;99.90
23267;DHT22;11802;53.160;8.214;2022-08-07T04:14:01;10.00;99.90
23267;DHT22;11802;53.160;8.214;2022-08-07T04:16:28;10.10;99.90
23267;DHT22;11802;53.160;8.214;2022-08-07T04:18:53;10.20;99.90
23267;DHT22;11802;53.160;8.214;2022-08-07T04:21:19;10.30;99.90
23267;DHT22;11802;53.160;8.214;2022-08-07T04:23:46;10.40;99.90
23267;DHT22;11802;53.160;8.214;2022-08-07T04:26:12;10.40;99.90
23267;DHT22;11802;53.160;8.214;2022-08-07T04:28:39;10.50;99.90
23267;DHT22;11802;53.160;8.214;2022-08-07T04:31:05;10.60;99.90
23267;DHT22;11802;53.160;8.214;2022-08-07T04:33:31;10.60;99.90
23267;DHT22;11802;53.160;8.214;2022-08-07T04:35:58;10.70;99.90
23267;DHT22;11802;53.160;8.214;2022-08-07T04:38:24;10.70;99.90
23267;DHT22;11802;53.160;8.214;2022-08-07T04:40:51;10.80;99.90
23267;DHT22;11802;53.160;8.214;2022-08-07T04:43:20;10.90;99.90
23267;DHT22;11802;53.160;8.214;2022-08-07T04:46:09;11.00;99.90
23267;DHT22;11802;53.160;8.214;2022-08-07T04:51:40;11.30;99.90
23267;DHT22;11802;53.160;8.214;2022-08-07T04:54:32;11.50;99.90
23267;DHT22;11802;53.160;8.214;2022-08-07T04:59:40;11.80;99.90
23267;DHT22;11802;53.160;8.214;2022-08-07T05:04:58;12.00;99.90
23267;DHT22;11802;53.160;8.214;2022-08-07T05:07:43;12.20;99.90
23267;DHT22;11802;53.160;8.214;2022-08-07T05:10:27;12.30;99.90
23267;DHT22;11802;53.160;8.214;2022-08-07T05:13:07;13.10;99.90
23267;DHT22;11802;53.160;8.214;2022-08-07T05:15:42;14.40;99.90
23267;DHT22;11802;53.160;8.214;2022-08-07T05:18:18;15.10;99.90
23267;DHT22;11802;53.160;8.214;2022-08-07T05:20:47;15.30;99.90
23267;DHT22;11802;53.160;8.214;2022-08-07T05:23:20;15.10;99.90
23267;DHT22;11802;53.160;8.214;2022-08-07T05:25:47;14.90;99.90
23267;DHT22;11802;53.160;8.214;2022-08-07T05:28:16;14.60;99.90
23267;DHT22;11802;53.160;8.214;2022-08-07T05:30:43;14.50;99.90
23267;DHT22;11802;53.160;8.214;2022-08-07T05:33:12;14.50;99.90
23267;DHT22;11802;53.160;8.214;2022-08-07T05:35:39;14.60;99.90
23267;DHT22;11802;53.160;8.214;2022-08-07T05:38:06;15.20;99.90
23267;DHT22;11802;53.160;8.214;2022-08-07T05:40:37;16.80;99.90
23267;DHT22;11802;53.160;8.214;2022-08-07T05:43:02;18.60;99.90
23267;DHT22;11802;53.160;8.214;2022-08-07T05:45:29;20.10;99.90
23267;DHT22;11802;53.160;8.214;2022-08-07T05:47:54;21.30;99.90
23267;DHT22;11802;53.160;8.214;2022-08-07T05:50:21;21.80;99.90
23267;DHT22;11802;53.160;8.214;2022-08-07T05:52:47;22.00;99.90
23267;DHT22;11802;53.160;8.214;2022-08-07T05:55:13;22.00;99.90
23267;DHT22;11802;53.160;8.214;2022-08-07T05:57:39;21.80;99.90
23267;DHT22;11802;53.160;8.214;2022-08-07T06:00:06;22.20;99.90
23267;DHT22;11802;53.160;8.214;2022-08-07T06:02:34;22.70;99.90
23267;DHT22;11802;53.160;8.214;2022-08-07T06:05:06;23.20;99.90
23267;DHT22;11802;53.160;8.214;2022-08-07T06:07:33;23.90;99.90
23267;DHT22;11802;53.160;8.214;2022-08-07T06:10:00;24.60;99.90
23267;DHT22;11802;53.160;8.214;2022-08-07T06:12:26;25.10;99.90
23267;DHT22;11802;53.160;8.214;2022-08-07T06:14:52;25.60;99.90
23267;DHT22;11802;53.160;8.214;2022-08-07T06:17:20;26.40;99.90
23267;DHT22;11802;53.160;8.214;2022-08-07T06:19:47;27.00;99.90
23267;DHT22;11802;53.160;8.214;2022-08-07T06:22:15;27.50;99.90
23267;DHT22;11802;53.160;8.214;2022-08-07T06:24:41;28.10;99.90
23267;DHT22;11802;53.160;8.214;2022-08-07T06:27:07;28.50;99.90
23267;DHT22;11802;53.160;8.214;2022-08-07T06:29:32;28.50;99.90
23267;DHT22;11802;53.160;8.214;2022-08-07T06:31:59;28.20;99.90
23267;DHT22;11802;53.160;8.214;2022-08-07T06:34:25;28.30;99.90
23267;DHT22;11802;53.160;8.214;2022-08-07T06:36:52;28.80;99.90
23267;DHT22;11802;53.160;8.214;2022-08-07T06:39:18;28.80;99.90
23267;DHT22;11802;53.160;8.214;2022-08-07T06:41:56;29.30;99.90
23267;DHT22;11802;53.160;8.214;2022-08-07T06:44:26;29.70;99.90
23267;DHT22;11802;53.160;8.214;2022-08-07T06:46:52;30.00;99.90
23267;DHT22;11802;53.160;8.214;2022-08-07T06:49:18;30.50;99.20
23267;DHT22;11802;53.160;8.214;2022-08-07T06:51:45;31.00;97.00
23267;DHT22;11802;53.160;8.214;2022-08-07T06:54:13;30.90;96.80
23267;DHT22;11802;53.160;8.214;2022-08-07T06:56:41;31.30;95.60
23267;DHT22;11802;53.160;8.214;2022-08-07T06:59:15;31.10;93.80
23267;DHT22;11802;53.160;8.214;2022-08-07T07:01:44;31.10;94.00
23267;DHT22;11802;53.160;8.214;2022-08-07T07:04:10;31.10;93.10
23267;DHT22;11802;53.160;8.214;2022-08-07T07:06:36;31.50;92.00
23267;DHT22;11802;53.160;8.214;2022-08-07T07:09:19;31.90;92.10
23267;DHT22;11802;53.160;8.214;2022-08-07T07:14:42;31.90;89.80
23267;DHT22;11802;53.160;8.214;2022-08-07T07:17:14;31.70;89.10
23267;DHT22;11802;53.160;8.214;2022-08-07T07:19:46;31.70;88.20
23267;DHT22;11802;53.160;8.214;2022-08-07T07:22:16;32.70;85.80
23267;DHT22;11802;53.160;8.214;2022-08-07T07:24:41;31.70;85.60
23267;DHT22;11802;53.160;8.214;2022-08-07T07:27:09;31.60;85.90
23267;DHT22;11802;53.160;8.214;2022-08-07T07:29:40;32.40;86.10
23267;DHT22;11802;53.160;8.214;2022-08-07T07:32:11;33.00;83.20
23267;DHT22;11802;53.160;8.214;2022-08-07T07:34:41;33.60;81.30
23267;DHT22;11802;53.160;8.214;2022-08-07T07:37:08;33.60;81.10
23267;DHT22;11802;53.160;8.214;2022-08-07T07:39:36;34.00;81.40
23267;DHT22;11802;53.160;8.214;2022-08-07T07:42:03;34.40;79.90
23267;DHT22;11802;53.160;8.214;2022-08-07T07:44:30;33.50;80.00
23267;DHT22;11802;53.160;8.214;2022-08-07T07:46:58;33.70;78.00
23267;DHT22;11802;53.160;8.214;2022-08-07T07:49:26;33.30;79.40
23267;DHT22;11802;53.160;8.214;2022-08-07T07:51:54;33.20;80.20
23267;DHT22;11802;53.160;8.214;2022-08-07T07:54:20;33.80;78.00
23267;DHT22;11802;53.160;8.214;2022-08-07T07:56:48;33.70;78.50
23267;DHT22;11802;53.160;8.214;2022-08-07T07:59:15;34.10;77.50
23267;DHT22;11802;53.160;8.214;2022-08-07T08:01:42;33.90;75.90
23267;DHT22;11802;53.160;8.214;2022-08-07T08:04:10;33.40;76.10
23267;DHT22;11802;53.160;8.214;2022-08-07T08:06:38;33.20;77.00
23267;DHT22;11802;53.160;8.214;2022-08-07T08:09:05;33.00;76.50
23267;DHT22;11802;53.160;8.214;2022-08-07T08:11:32;33.40;76.30
23267;DHT22;11802;53.160;8.214;2022-08-07T08:13:58;33.70;77.10
23267;DHT22;11802;53.160;8.214;2022-08-07T08:16:35;34.40;75.90
23267;DHT22;11802;53.160;8.214;2022-08-07T08:19:03;34.90;73.70
23267;DHT22;11802;53.160;8.214;2022-08-07T08:21:31;35.50;73.30
23267;DHT22;11802;53.160;8.214;2022-08-07T08:24:17;35.50;72.00
23267;DHT22;11802;53.160;8.214;2022-08-07T08:27:02;35.10;71.40
23267;DHT22;11802;53.160;8.214;2022-08-07T08:29:48;35.10;72.30
23267;DHT22;11802;53.160;8.214;2022-08-07T08:32:19;35.00;70.40
23267;DHT22;11802;53.160;8.214;2022-08-07T08:34:47;34.60;70.70
23267;DHT22;11802;53.160;8.214;2022-08-07T08:37:15;34.50;70.30
23267;DHT22;11802;53.160;8.214;2022-08-07T08:39:45;35.00;70.70
23267;DHT22;11802;53.160;8.214;2022-08-07T08:42:29;35.20;69.60
23267;DHT22;11802;53.160;8.214;2022-08-07T08:45:04;34.30;70.70
23267;DHT22;11802;53.160;8.214;2022-08-07T08:50:34;33.70;70.50
23267;DHT22;11802;53.160;8.214;2022-08-07T08:56:06;33.20;71.70
23267;DHT22;11802;53.160;8.214;2022-08-07T09:01:21;33.70;72.70
23267;DHT22;11802;53.160;8.214;2022-08-07T09:03:58;34.20;71.10
23267;DHT22;11802;53.160;8.214;2022-08-07T09:27:21;32.50;70.60
23267;DHT22;11802;53.160;8.214;2022-08-07T09:35:10;33.10;72.20
23267;DHT22;11802;53.160;8.214;2022-08-07T09:37:50;33.40;71.70
23267;DHT22;11802;53.160;8.214;2022-08-07T09:46:07;33.30;71.00
23267;DHT22;11802;53.160;8.214;2022-08-07T09:49:05;32.60;73.20
23267;DHT22;11802;53.160;8.214;2022-08-07T09:51:50;32.80;72.70
23267;DHT22;11802;53.160;8.214;2022-08-07T10:00:04;32.80;73.80
23267;DHT22;11802;53.160;8.214;2022-08-07T10:08:42;32.30;72.10
23267;DHT22;11802;53.160;8.214;2022-08-07T10:14:12;30.40;75.20
23267;DHT22;11802;53.160;8.214;2022-08-07T10:20:07;29.20;79.20
23267;DHT22;11802;53.160;8.214;2022-08-07T10:22:48;29.50;79.20
23267;DHT22;11802;53.160;8.214;2022-08-07T10:28:17;28.80;80.30
23267;DHT22;11802;53.160;8.214;2022-08-07T10:39:17;29.10;78.20
23267;DHT22;11802;53.160;8.214;2022-08-07T10:44:51;30.20;78.00
23267;DHT22;11802;53.160;8.214;2022-08-07T10:47:32;30.50;77.90
23267;DHT22;11802;53.160;8.214;2022-08-07T10:50:21;31.00;76.00
23267;DHT22;11802;53.160;8.214;2022-08-07T10:53:16;30.50;75.20
23267;DHT22;11802;53.160;8.214;2022-08-07T10:55:49;29.90;77.30
23267;DHT22;11802;53.160;8.214;2022-08-07T11:01:27;28.70;80.00
23267;DHT22;11802;53.160;8.214;2022-08-07T11:04:04;29.40;81.00
23267;DHT22;11802;53.160;8.214;2022-08-07T11:09:17;29.70;77.30
23267;DHT22;11802;53.160;8.214;2022-08-07T11:11:48;29.90;78.20
23267;DHT22;11802;53.160;8.214;2022-08-07T11:14:29;29.90;79.00
23267;DHT22;11802;53.160;8.214;2022-08-07T11:17:02;30.00;77.90
23267;DHT22;11802;53.160;8.214;2022-08-07T11:19:52;30.00;78.00
23267;DHT22;11802;53.160;8.214;2022-08-07T11:28:09;30.70;76.20
23267;DHT22;11802;53.160;8.214;2022-08-07T11:30:58;30.10;75.30
23267;DHT22;11802;53.160;8.214;2022-08-07T11:39:31;27.90;79.70
23267;DHT22;11802;53.160;8.214;2022-08-07T11:42:14;27.80;80.20
23267;DHT22;11802;53.160;8.214;2022-08-07T11:53:12;29.90;76.70
23267;DHT22;11802;53.160;8.214;2022-08-07T11:56:02;30.10;77.60
23267;DHT22;11802;53.160;8.214;2022-08-07T11:59:03;30.30;80.50
23267;DHT22;11802;53.160;8.214;2022-08-07T12:01:37;30.10;75.70
23267;DHT22;11802;53.160;8.214;2022-08-07T12:06:59;30.60;75.50
23267;DHT22;11802;53.160;8.214;2022-08-07T12:09:41;30.50;75.40
23267;DHT22;11802;53.160;8.214;2022-08-07T12:12:22;30.20;74.70
23267;DHT22;11802;53.160;8.214;2022-08-07T12:15:05;30.10;75.90
23267;DHT22;11802;53.160;8.214;2022-08-07T12:17:46;29.80;74.00
23267;DHT22;11802;53.160;8.214;2022-08-07T12:20:22;28.40;75.70
23267;DHT22;11802;53.160;8.214;2022-08-07T12:25:53;27.10;78.50
23267;DHT22;11802;53.160;8.214;2022-08-07T12:28:42;27.10;81.90
23267;DHT22;11802;53.160;8.214;2022-08-07T12:31:16;27.50;82.00
23267;DHT22;11802;53.160;8.214;2022-08-07T12:33:44;28.00;80.70
23267;DHT22;11802;53.160;8.214;2022-08-07T12:36:10;28.20;79.50
23267;DHT22;11802;53.160;8.214;2022-08-07T12:38:38;28.10;77.90
23267;DHT22;11802;53.160;8.214;2022-08-07T12:41:06;28.40;78.50
23267;DHT22;11802;53.160;8.214;2022-08-07T12:43:33;28.20;78.20
23267;DHT22;11802;53.160;8.214;2022-08-07T12:46:21;28.50;77.90
23267;DHT22;11802;53.160;8.214;2022-08-07T12:49:14;29.30;77.10
23267;DHT22;11802;53.160;8.214;2022-08-07T12:51:52;29.40;77.50
23267;DHT22;11802;53.160;8.214;2022-08-07T12:54:42;29.00;77.20
23267;DHT22;11802;53.160;8.214;2022-08-07T12:57:09;28.30;77.70
23267;DHT22;11802;53.160;8.214;2022-08-07T12:59:36;28.40;79.00
23267;DHT22;11802;53.160;8.214;2022-08-07T13:05:04;28.30;77.60
23267;DHT22;11802;53.160;8.214;2022-08-07T13:10:59;28.50;78.70
23267;DHT22;11802;53.160;8.214;2022-08-07T13:16:04;28.60;76.70
23267;DHT22;11802;53.160;8.214;2022-08-07T13:21:24;27.90;77.50
23267;DHT22;11802;53.160;8.214;2022-08-07T13:24:08;28.00;78.20
23267;DHT22;11802;53.160;8.214;2022-08-07T13:26:40;28.50;78.70
23267;DHT22;11802;53.160;8.214;2022-08-07T13:29:14;28.90;77.10
23267;DHT22;11802;53.160;8.214;2022-08-07T13:31:48;29.10;76.40
23267;DHT22;11802;53.160;8.214;2022-08-07T13:36:47;29.50;76.20
23267;DHT22;11802;53.160;8.214;2022-08-07T13:39:34;29.10;78.60
23267;DHT22;11802;53.160;8.214;2022-08-07T13:42:00;28.90;76.40
23267;DHT22;11802;53.160;8.214;2022-08-07T13:44:32;28.50;77.90
23267;DHT22;11802;53.160;8.214;2022-08-07T13:47:02;28.50;78.60
23267;DHT22;11802;53.160;8.214;2022-08-07T13:49:36;28.60;79.30
23267;DHT22;11802;53.160;8.214;2022-08-07T13:52:05;28.60;79.10
23267;DHT22;11802;53.160;8.214;2022-08-07T13:54:32;28.70;78.10
23267;DHT22;11802;53.160;8.214;2022-08-07T13:57:01;28.70;77.50
23267;DHT22;11802;53.160;8.214;2022-08-07T13:59:31;28.60;77.40
23267;DHT22;11802;53.160;8.214;2022-08-07T14:02:02;28.20;77.30
23267;DHT22;11802;53.160;8.214;2022-08-07T14:04:56;27.90;79.00
23267;DHT22;11802;53.160;8.214;2022-08-07T14:07:26;28.00;80.50
23267;DHT22;11802;53.160;8.214;2022-08-07T14:09:58;28.30;78.60
23267;DHT22;11802;53.160;8.214;2022-08-07T14:15:04;28.30;78.80
23267;DHT22;11802;53.160;8.214;2022-08-07T14:17:35;28.10;79.10
23267;DHT22;11802;53.160;8.214;2022-08-07T14:20:07;27.90;79.40
23267;DHT22;11802;53.160;8.214;2022-08-07T14:22:35;27.60;78.70
23267;DHT22;11802;53.160;8.214;2022-08-07T14:25:12;27.90;80.60
23267;DHT22;11802;53.160;8.214;2022-08-07T14:27:44;28.00;80.40
23267;DHT22;11802;53.160;8.214;2022-08-07T14:30:11;28.00;80.10
23267;DHT22;11802;53.160;8.214;2022-08-07T14:32:55;28.20;82.30
23267;DHT22;11802;53.160;8.214;2022-08-07T14:35:28;28.30;79.50
23267;DHT22;11802;53.160;8.214;2022-08-07T14:37:56;28.20;78.20
23267;DHT22;11802;53.160;8.214;2022-08-07T14:40:23;28.00;80.20
23267;DHT22;11802;53.160;8.214;2022-08-07T14:43:03;27.90;78.70
23267;DHT22;11802;53.160;8.214;2022-08-07T14:45:32;27.40;80.40
23267;DHT22;11802;53.160;8.214;2022-08-07T14:48:00;27.30;80.50
23267;DHT22;11802;53.160;8.214;2022-08-07T14:50:28;27.00;80.50
23267;DHT22;11802;53.160;8.214;2022-08-07T14:52:54;26.90;81.40
23267;DHT22;11802;53.160;8.214;2022-08-07T14:55:22;26.80;80.90
23267;DHT22;11802;53.160;8.214;2022-08-07T14:57:51;26.90;81.00
23267;DHT22;11802;53.160;8.214;2022-08-07T15:00:25;26.70;85.70
23267;DHT22;11802;53.160;8.214;2022-08-07T15:02:51;26.70;85.10
23267;DHT22;11802;53.160;8.214;2022-08-07T15:05:17;26.80;82.90
23267;DHT22;11802;53.160;8.214;2022-08-07T15:07:45;26.80;79.30
23267;DHT22;11802;53.160;8.214;2022-08-07T15:10:20;26.70;80.50
23267;DHT22;11802;53.160;8.214;2022-08-07T15:12:48;26.60;81.90
23267;DHT22;11802;53.160;8.214;2022-08-07T15:15:22;26.60;81.90
23267;DHT22;11802;53.160;8.214;2022-08-07T15:18:00;26.70;82.90
23267;DHT22;11802;53.160;8.214;2022-08-07T15:20:31;26.70;79.40
23267;DHT22;11802;53.160;8.214;2022-08-07T15:23:02;26.50;80.30
23267;DHT22;11802;53.160;8.214;2022-08-07T15:25:32;26.30;82.10
23267;DHT22;11802;53.160;8.214;2022-08-07T15:28:01;26.30;82.20
23267;DHT22;11802;53.160;8.214;2022-08-07T15:30:28;26.10;83.50
23267;DHT22;11802;53.160;8.214;2022-08-07T15:32:55;26.00;83.40
23267;DHT22;11802;53.160;8.214;2022-08-07T15:35:24;25.90;83.60
23267;DHT22;11802;53.160;8.214;2022-08-07T15:37:56;25.80;84.80
23267;DHT22;11802;53.160;8.214;2022-08-07T15:40:29;25.70;83.70
23267;DHT22;11802;53.160;8.214;2022-08-07T15:45:29;25.60;86.10
23267;DHT22;11802;53.160;8.214;2022-08-07T15:48:03;25.60;86.40
23267;DHT22;11802;53.160;8.214;2022-08-07T15:50:36;25.30;86.20
23267;DHT22;11802;53.160;8.214;2022-08-07T15:53:13;25.10;86.70
23267;DHT22;11802;53.160;8.214;2022-08-07T15:55:49;24.80;88.80
23267;DHT22;11802;53.160;8.214;2022-08-07T15:58:16;24.80;87.40
23267;DHT22;11802;53.160;8.214;2022-08-07T16:00:44;24.80;90.70
23267;DHT22;11802;53.160;8.214;2022-08-07T16:03:13;24.70;87.10
23267;DHT22;11802;53.160;8.214;2022-08-07T16:05:44;24.60;86.80
23267;DHT22;11802;53.160;8.214;2022-08-07T16:08:16;24.60;90.10
23267;DHT22;11802;53.160;8.214;2022-08-07T16:10:46;24.60;88.10
23267;DHT22;11802;53.160;8.214;2022-08-07T16:19:02;24.40;88.60
23267;DHT22;11802;53.160;8.214;2022-08-07T16:21:41;24.30;89.80
23267;DHT22;11802;53.160;8.214;2022-08-07T16:24:32;24.20;88.90
23267;DHT22;11802;53.160;8.214;2022-08-07T16:27:23;24.00;89.10
23267;DHT22;11802;53.160;8.214;2022-08-07T16:30:07;24.10;90.10
23267;DHT22;11802;53.160;8.214;2022-08-07T16:32:48;24.00;89.10
23267;DHT22;11802;53.160;8.214;2022-08-07T16:35:25;23.90;90.60
23267;DHT22;11802;53.160;8.214;2022-08-07T16:38:32;23.90;90.40
23267;DHT22;11802;53.160;8.214;2022-08-07T16:55:52;23.70;94.10
23267;DHT22;11802;53.160;8.214;2022-08-07T16:58:59;23.40;94.80
23267;DHT22;11802;53.160;8.214;2022-08-07T17:01:50;23.10;96.00
23267;DHT22;11802;53.160;8.214;2022-08-07T17:04:36;23.10;97.00
23267;DHT22;11802;53.160;8.214;2022-08-07T17:07:22;23.00;97.80
23267;DHT22;11802;53.160;8.214;2022-08-07T17:09:54;22.90;97.60
23267;DHT22;11802;53.160;8.214;2022-08-07T17:12:39;22.80;97.90
23267;DHT22;11802;53.160;8.214;2022-08-07T17:29:20;22.70;98.50
23267;DHT22;11802;53.160;8.214;2022-08-07T17:34:53;22.40;99.20
23267;DHT22;11802;53.160;8.214;2022-08-07T17:37:28;22.30;98.90
23267;DHT22;11802;53.160;8.214;2022-08-07T17:40:03;22.20;99.90
23267;DHT22;11802;53.160;8.214;2022-08-07T17:43:02;22.10;99.90
23267;DHT22;11802;53.160;8.214;2022-08-07T17:45:40;22.00;99.90
23267;DHT22;11802;53.160;8.214;2022-08-07T17:48:11;21.80;99.90
23267;DHT22;11802;53.160;8.214;2022-08-07T17:53:24;21.80;99.90
23267;DHT22;11802;53.160;8.214;2022-08-07T17:56:02;21.60;99.90
23267;DHT22;11802;53.160;8.214;2022-08-07T18:01:23;21.60;99.90
23267;DHT22;11802;53.160;8.214;2022-08-07T18:06:58;21.40;99.90
23267;DHT22;11802;53.160;8.214;2022-08-07T18:09:27;21.40;99.90
23267;DHT22;11802;53.160;8.214;2022-08-07T18:12:02;21.30;99.90
23267;DHT22;11802;53.160;8.214;2022-08-07T18:14:38;21.20;99.90
23267;DHT22;11802;53.160;8.214;2022-08-07T18:17:27;21.10;99.90
23267;DHT22;11802;53.160;8.214;2022-08-07T18:20:25;21.00;99.90
23267;DHT22;11802;53.160;8.214;2022-08-07T18:22:56;20.90;99.90
23267;DHT22;11802;53.160;8.214;2022-08-07T18:25:24;20.70;99.90
23267;DHT22;11802;53.160;8.214;2022-08-07T18:28:20;20.60;99.90
23267;DHT22;11802;53.160;8.214;2022-08-07T18:36:57;20.30;99.90
23267;DHT22;11802;53.160;8.214;2022-08-07T18:42:24;19.90;99.90
23267;DHT22;11802;53.160;8.214;2022-08-07T18:45:08;19.80;99.90
23267;DHT22;11802;53.160;8.214;2022-08-07T18:47:50;19.70;99.90
23267;DHT22;11802;53.160;8.214;2022-08-07T18:53:41;19.40;99.90
23267;DHT22;11802;53.160;8.214;2022-08-07T19:01:57;19.20;99.90
23267;DHT22;11802;53.160;8.214;2022-08-07T19:04:51;19.10;99.90
23267;DHT22;11802;53.160;8.214;2022-08-07T19:08:16;19.00;99.90
23267;DHT22;11802;53.160;8.214;2022-08-07T19:10:17;18.80;99.90
23267;DHT22;11802;53.160;8.214;2022-08-07T19:13:07;18.80;99.90
23267;DHT22;11802;53.160;8.214;2022-08-07T19:15:54;18.70;99.90
23267;DHT22;11802;53.160;8.214;2022-08-07T19:18:36;18.60;99.90
23267;DHT22;11802;53.160;8.214;2022-08-07T19:21:14;18.60;99.90